createdAt,value
2017-08-26T00:02:18.746Z,74.30
2017-08-26T00:04:46.499Z,73.80
2017-08-26T00:07:14.165Z,72.90
2017-08-26T00:09:41.824Z,72.60
2017-08-26T00:12:09.464Z,73.10
2017-08-26T00:14:37.143Z,72.40
2017-08-26T00:17:04.802Z,73.30
2017-08-26T00:19:32.429Z,72.40
2017-08-26T00:22:00.053Z,74.80
2017-08-26T01:46:24.885Z,76.40
2017-08-26T01:48:52.548Z,92.90
2017-08-26T01:51:20.214Z,92.50
2017-08-26T01:53:47.912Z,93.90
2017-08-26T01:56:15.577Z,93.20
2017-08-26T01:58:43.307Z,93.60
2017-08-26T02:01:10.989Z,93.50
2017-08-26T02:03:38.653Z,93.50
2017-08-26T02:06:06.485Z,91.80
2017-08-26T02:08:34.192Z,91.90
2017-08-26T02:11:01.843Z,91.90
2017-08-26T02:13:29.496Z,91.40
2017-08-26T02:15:57.287Z,90.50
2017-08-26T02:18:24.941Z,91.90
2017-08-26T02:20:52.606Z,93.20
2017-08-26T02:23:20.297Z,93.50
2017-08-26T02:25:47.948Z,95.40
2017-08-26T02:28:15.670Z,94.50
2017-08-26T02:30:43.478Z,95.10
2017-08-26T02:33:11.133Z,96.50
2017-08-26T02:35:38.796Z,96.30
2017-08-26T02:38:06.650Z,95.90
2017-08-26T02:43:08.260Z,96.60
2017-08-26T02:45:35.934Z,95.60
2017-08-26T02:48:03.587Z,96.50
2017-08-26T02:50:31.279Z,95.20
2017-08-26T02:52:58.934Z,96.30
2017-08-26T02:55:26.668Z,97.00
2017-08-26T02:57:54.382Z,96.80
2017-08-26T03:00:22.051Z,96.30
2017-08-26T03:02:49.692Z,95.80
2017-08-26T03:05:17.417Z,95.10
2017-08-26T03:07:45.055Z,93.80
2017-08-26T03:10:12.695Z,93.10
2017-08-26T03:12:40.385Z,94.50
2017-08-26T03:15:08.046Z,96.80
2017-08-26T03:17:35.736Z,98.00
2017-08-26T03:20:03.423Z,98.20
2017-08-26T03:22:31.091Z,97.70
2017-08-26T03:24:58.745Z,96.80
2017-08-26T03:27:26.651Z,97.40
2017-08-26T03:29:54.321Z,97.60
2017-08-26T03:32:21.974Z,96.30
2017-08-26T03:34:49.654Z,96.10
2017-08-26T03:37:17.299Z,95.90
2017-08-26T03:39:44.955Z,95.60
2017-08-26T03:42:12.628Z,96.50
2017-08-26T03:44:40.272Z,97.10
2017-08-26T03:47:07.927Z,96.50
2017-08-26T03:49:35.661Z,95.60
2017-08-26T03:52:03.315Z,95.10
2017-08-26T03:54:30.982Z,95.10
2017-08-26T03:56:58.668Z,94.90
2017-08-26T03:59:26.556Z,97.00
2017-08-26T04:01:54.212Z,98.40
2017-08-26T04:04:21.904Z,99.00
2017-08-26T04:06:49.568Z,98.70
2017-08-26T04:09:17.287Z,98.10
2017-08-26T04:11:44.959Z,97.00
2017-08-26T04:14:12.603Z,96.20
2017-08-26T04:16:40.257Z,95.40
2017-08-26T04:19:07.952Z,95.20
2017-08-26T04:21:35.607Z,94.20
2017-08-26T04:24:03.347Z,96.20
2017-08-26T04:26:31.034Z,97.10
2017-08-26T04:28:58.674Z,97.60
2017-08-26T04:31:26.381Z,96.90
2017-08-26T04:33:54.130Z,97.20
2017-08-26T04:36:21.764Z,97.50
2017-08-26T04:38:49.412Z,98.10
2017-08-26T04:41:17.231Z,98.50
2017-08-26T04:43:44.894Z,97.80
2017-08-26T04:46:12.556Z,97.30
2017-08-26T04:48:40.246Z,97.40
2017-08-26T04:51:07.906Z,97.90
2017-08-26T04:53:35.590Z,98.00
2017-08-26T04:56:03.381Z,99.10
2017-08-26T04:58:31.042Z,99.40
2017-08-26T05:00:58.703Z,99.90
2017-08-26T05:03:26.553Z,99.90
2017-08-26T05:05:54.197Z,99.90
2017-08-26T05:08:21.841Z,99.90
2017-08-26T05:10:49.517Z,99.90
2017-08-26T05:13:17.277Z,99.90
2017-08-26T05:15:44.936Z,99.90
2017-08-26T05:18:12.612Z,99.90
2017-08-26T05:20:40.258Z,99.90
2017-08-26T05:23:07.892Z,99.90
2017-08-26T05:25:35.597Z,99.90
2017-08-26T05:28:03.345Z,99.60
2017-08-26T05:30:31.005Z,99.20
2017-08-26T05:32:58.689Z,99.90
2017-08-26T05:35:26.627Z,99.90
2017-08-26T05:37:54.274Z,99.30
2017-08-26T05:40:21.947Z,98.50
2017-08-26T05:42:49.595Z,98.50
2017-08-26T05:45:17.253Z,96.10
2017-08-26T05:47:44.943Z,95.90
2017-08-26T05:50:12.590Z,96.50
2017-08-26T05:52:40.244Z,95.10
2017-08-26T05:55:08.081Z,93.80
2017-08-26T05:57:35.746Z,94.70
2017-08-26T06:00:03.369Z,92.50
2017-08-26T06:02:31.033Z,93.60
2017-08-26T06:04:58.644Z,92.10
2017-08-26T06:07:26.271Z,92.00
2017-08-26T06:09:53.938Z,91.60
2017-08-26T06:12:21.564Z,93.50
2017-08-26T06:14:49.180Z,94.30
2017-08-26T06:17:16.847Z,92.60
2017-08-26T06:19:44.696Z,93.70
2017-08-26T06:22:12.307Z,92.70
2017-08-26T06:24:40.002Z,91.60
2017-08-26T06:27:07.680Z,92.30
2017-08-26T06:29:35.291Z,93.90
2017-08-26T06:32:02.940Z,93.30
2017-08-26T06:34:50.171Z,94.20
2017-08-26T06:37:17.825Z,92.90
2017-08-26T06:39:45.460Z,93.50
2017-08-26T06:42:13.118Z,92.40
2017-08-26T06:44:40.870Z,92.90
2017-08-26T06:47:08.703Z,92.60
2017-08-26T06:49:36.605Z,93.20
2017-08-26T06:52:04.281Z,92.20
2017-08-26T06:54:31.904Z,90.60
2017-08-26T06:56:59.525Z,90.50
2017-08-26T06:59:31.270Z,90.80
2017-08-26T07:01:58.880Z,88.70
2017-08-26T07:04:26.647Z,88.00
2017-08-26T07:06:54.296Z,87.70
2017-08-26T07:09:21.916Z,85.70
2017-08-26T07:11:49.532Z,83.30
2017-08-26T07:14:17.190Z,82.90
2017-08-26T07:16:47.985Z,83.20
2017-08-26T07:19:15.640Z,82.60
2017-08-26T07:21:43.444Z,82.20
2017-08-26T07:24:11.051Z,82.70
2017-08-26T07:26:38.660Z,82.60
2017-08-26T07:29:06.348Z,82.90
2017-08-26T07:31:33.955Z,82.10
2017-08-26T07:34:01.574Z,83.90
2017-08-26T07:36:29.251Z,85.50
2017-08-26T07:38:56.880Z,86.50
2017-08-26T07:41:24.519Z,86.70
2017-08-26T07:43:52.173Z,83.50
2017-08-26T07:46:19.796Z,83.10
2017-08-26T07:48:47.485Z,83.50
2017-08-26T07:51:15.125Z,81.10
2017-08-26T07:53:42.748Z,83.40
2017-08-26T07:56:10.363Z,82.00
2017-08-26T07:58:38.020Z,82.70
2017-08-26T08:01:05.643Z,83.20
2017-08-26T08:03:33.332Z,82.00
2017-08-26T08:06:00.977Z,83.80
2017-08-26T08:08:28.667Z,83.80
2017-08-26T08:10:56.289Z,86.10
2017-08-26T08:13:23.944Z,87.90
2017-08-26T08:15:51.555Z,90.40
2017-08-26T08:18:19.258Z,91.80
2017-08-26T08:20:46.903Z,93.70
2017-08-26T08:23:14.520Z,95.00
2017-08-26T08:25:42.141Z,95.00
2017-08-26T08:28:09.814Z,97.10
2017-08-26T08:30:37.580Z,98.60
2017-08-26T08:33:05.190Z,99.90
2017-08-26T08:35:32.882Z,99.90
2017-08-26T08:38:00.495Z,99.90
2017-08-26T08:40:28.205Z,99.90
2017-08-26T08:42:55.878Z,98.80
2017-08-26T08:45:23.514Z,98.10
2017-08-26T08:47:51.136Z,95.70
2017-08-26T08:50:18.780Z,92.40
2017-08-26T08:52:46.489Z,93.30
2017-08-26T08:55:14.109Z,94.20
2017-08-26T08:57:41.743Z,96.20
2017-08-26T09:00:09.387Z,98.30
2017-08-26T09:02:37.053Z,98.70
2017-08-26T09:05:04.719Z,99.90
2017-08-26T09:07:32.328Z,99.90
2017-08-26T09:09:59.956Z,99.90
2017-08-26T09:12:27.670Z,99.90
2017-08-26T09:14:55.292Z,99.90
2017-08-26T09:17:22.930Z,99.90
2017-08-26T09:19:50.606Z,99.90
2017-08-26T09:22:18.232Z,99.80
2017-08-26T09:24:45.892Z,99.60
2017-08-26T09:27:13.553Z,99.90
2017-08-26T09:29:41.177Z,99.90
2017-08-26T09:32:08.796Z,99.90
2017-08-26T09:34:36.472Z,99.90
2017-08-26T09:37:04.077Z,99.90
2017-08-26T09:39:31.695Z,99.90
2017-08-26T09:41:59.354Z,99.90
2017-08-26T09:44:28.961Z,99.90
2017-08-26T09:46:56.738Z,99.90
2017-08-26T09:49:24.401Z,99.90
2017-08-26T09:51:52.015Z,99.90
2017-08-26T09:54:19.729Z,99.90
2017-08-26T09:56:47.390Z,99.90
2017-08-26T09:59:15.018Z,99.90
2017-08-26T10:01:42.636Z,99.90
2017-08-26T10:04:10.288Z,99.90
2017-08-26T10:06:37.928Z,99.90
2017-08-26T10:09:05.540Z,99.90
2017-08-26T10:11:33.257Z,99.90
2017-08-26T10:14:00.896Z,99.90
2017-08-26T10:16:28.533Z,99.90
2017-08-26T10:18:56.192Z,99.90
2017-08-26T10:21:23.812Z,99.90
2017-08-26T10:23:51.421Z,99.30
2017-08-26T10:26:19.068Z,93.90
2017-08-26T10:28:46.697Z,89.00
2017-08-26T10:31:14.304Z,88.90
2017-08-26T10:33:41.944Z,85.80
2017-08-26T10:36:09.577Z,84.20
2017-08-26T10:38:37.281Z,84.80
2017-08-26T10:41:04.935Z,84.90
2017-08-26T10:43:32.539Z,86.70
2017-08-26T10:46:01.767Z,85.80
2017-08-26T10:48:29.407Z,77.30
2017-08-26T10:50:57.188Z,82.50
2017-08-26T10:53:24.804Z,72.50
2017-08-26T10:55:52.467Z,77.40
2017-08-26T10:58:20.088Z,74.60
2017-08-26T11:00:48.566Z,72.70
2017-08-26T11:03:16.249Z,70.90
2017-08-26T11:05:43.851Z,74.00
2017-08-26T11:08:11.482Z,73.50
2017-08-26T11:10:39.145Z,70.90
2017-08-26T11:13:06.804Z,70.90
2017-08-26T11:15:34.440Z,70.80
2017-08-26T11:18:02.119Z,75.40
2017-08-26T11:20:29.728Z,71.20
2017-08-26T11:22:57.470Z,66.40
2017-08-26T11:25:25.108Z,69.70
2017-08-26T11:27:52.729Z,71.30
2017-08-26T11:30:20.352Z,68.30
2017-08-26T11:32:48.008Z,67.40
2017-08-26T11:35:15.662Z,69.20
2017-08-26T11:37:43.296Z,71.60
2017-08-26T11:40:10.932Z,67.60
2017-08-26T11:42:38.543Z,65.80
2017-08-26T11:45:06.278Z,69.70
2017-08-26T11:47:33.933Z,69.20
2017-08-26T11:50:01.561Z,64.20
2017-08-26T11:52:29.184Z,65.80
2017-08-26T11:54:56.845Z,70.10
2017-08-26T11:57:24.473Z,69.20
2017-08-26T11:59:52.093Z,67.50
2017-08-26T12:02:19.737Z,67.20
2017-08-26T12:04:47.357Z,66.30
2017-08-26T12:07:14.975Z,63.90
2017-08-26T12:09:42.639Z,61.60
2017-08-26T12:12:10.261Z,62.40
2017-08-26T12:14:37.895Z,66.30
2017-08-26T12:17:05.849Z,64.00
2017-08-26T12:19:33.461Z,60.80
2017-08-26T12:22:01.180Z,58.50
2017-08-26T12:24:28.833Z,58.70
2017-08-26T12:26:56.630Z,59.00
2017-08-26T12:29:24.246Z,60.00
2017-08-26T12:31:51.903Z,58.00
2017-08-26T12:34:19.528Z,58.00
2017-08-26T12:36:47.167Z,57.80
2017-08-26T12:39:14.796Z,57.70
2017-08-26T12:41:42.423Z,58.00
2017-08-26T12:44:13.794Z,57.70
2017-08-26T12:46:42.966Z,59.10
2017-08-26T12:49:10.723Z,57.70
2017-08-26T12:51:38.670Z,55.90
2017-08-26T12:54:06.566Z,56.50
2017-08-26T12:56:34.174Z,56.20
2017-08-26T12:59:01.785Z,53.70
2017-08-26T13:01:29.439Z,55.00
2017-08-26T13:03:57.373Z,52.90
2017-08-26T13:06:25.455Z,48.80
2017-08-26T13:08:53.249Z,52.70
2017-08-26T13:11:20.909Z,49.80
2017-08-26T13:13:48.691Z,50.50
2017-08-26T13:16:16.370Z,53.60
2017-08-26T13:18:43.996Z,50.00
2017-08-26T13:21:11.595Z,44.90
2017-08-26T13:23:39.280Z,41.40
2017-08-26T13:26:06.989Z,39.00
2017-08-26T13:28:34.601Z,40.30
2017-08-26T13:31:02.249Z,40.40
2017-08-26T13:33:29.854Z,38.50
2017-08-26T13:35:57.849Z,37.80
2017-08-26T13:38:26.559Z,33.60
2017-08-26T13:40:54.170Z,34.50
2017-08-26T13:43:21.776Z,32.10
2017-08-26T13:45:49.433Z,31.30
2017-08-26T13:48:17.038Z,28.30
2017-08-26T13:50:44.656Z,26.90
2017-08-26T13:53:12.301Z,25.70
2017-08-26T13:55:40.822Z,26.40
2017-08-26T13:58:08.439Z,26.00
2017-08-26T14:00:36.205Z,25.20
2017-08-26T14:03:03.814Z,25.80
2017-08-26T14:05:31.428Z,25.20
2017-08-26T14:07:59.083Z,25.20
2017-08-26T14:10:26.705Z,26.20
2017-08-26T14:12:54.366Z,26.50
2017-08-26T14:15:22.000Z,26.20
2017-08-26T14:17:49.618Z,28.00
2017-08-26T14:20:17.274Z,29.80
2017-08-26T14:22:44.912Z,31.40
2017-08-26T14:25:12.585Z,35.60
2017-08-26T14:27:40.715Z,36.90
2017-08-26T14:30:08.387Z,36.90
2017-08-26T14:32:36.383Z,37.70
2017-08-26T14:35:04.015Z,38.30
2017-08-26T14:37:31.659Z,41.10
2017-08-26T14:39:59.259Z,44.00
2017-08-26T14:42:26.891Z,41.50
2017-08-26T14:44:54.553Z,43.20
2017-08-26T14:47:22.620Z,42.50
2017-08-26T14:49:50.248Z,43.30
2017-08-26T14:52:17.891Z,41.90
2017-08-26T14:54:45.524Z,41.30
2017-08-26T14:57:13.220Z,45.00
2017-08-26T14:59:40.856Z,44.00
2017-08-26T15:02:08.464Z,43.90
2017-08-26T15:04:36.195Z,43.50
2017-08-26T15:07:03.834Z,44.30
2017-08-26T15:09:31.441Z,46.90
2017-08-26T15:11:59.097Z,47.40
2017-08-26T15:14:26.765Z,46.30
2017-08-26T15:16:54.457Z,47.40
2017-08-26T15:19:22.063Z,46.30
2017-08-26T15:21:49.725Z,46.40
2017-08-26T15:24:17.328Z,45.60
2017-08-26T15:26:44.962Z,45.50
2017-08-26T15:29:12.617Z,46.70
2017-08-26T15:31:40.236Z,48.00
2017-08-26T15:34:07.870Z,49.60
2017-08-26T15:36:35.649Z,49.40
2017-08-26T15:39:03.276Z,49.80
2017-08-26T15:41:30.882Z,48.40
2017-08-26T15:43:58.539Z,47.60
2017-08-26T15:46:26.264Z,47.40
2017-08-26T15:48:53.882Z,48.00
2017-08-26T15:51:21.538Z,50.20
2017-08-26T15:53:49.151Z,52.50
2017-08-26T15:56:16.803Z,53.00
2017-08-26T15:58:44.439Z,53.80
2017-08-26T16:01:12.056Z,54.70
2017-08-26T16:03:39.665Z,54.50
2017-08-26T16:06:07.297Z,55.80
2017-08-26T16:08:34.925Z,55.90
2017-08-26T16:11:02.542Z,56.90
2017-08-26T16:13:30.190Z,59.90
2017-08-26T16:15:57.813Z,60.20
2017-08-26T16:18:25.434Z,61.00
2017-08-26T16:20:53.118Z,61.30
2017-08-26T16:23:20.745Z,61.60
2017-08-26T16:25:48.354Z,61.10
2017-08-26T16:28:16.045Z,61.30
2017-08-26T16:30:43.657Z,61.00
2017-08-26T16:33:11.315Z,61.80
2017-08-26T16:35:38.959Z,63.10
2017-08-26T16:38:06.740Z,62.90
2017-08-26T16:40:34.367Z,62.20
2017-08-26T16:43:02.029Z,62.90
2017-08-26T16:45:29.649Z,62.90
2017-08-26T16:47:57.258Z,62.90
2017-08-26T16:50:24.905Z,62.60
2017-08-26T16:52:52.515Z,62.40
2017-08-26T16:55:20.138Z,63.30
2017-08-26T16:57:47.789Z,63.90
2017-08-26T17:00:15.450Z,63.60
2017-08-26T17:02:43.105Z,64.50
2017-08-26T17:05:10.745Z,65.50
2017-08-26T17:07:38.372Z,65.80
2017-08-26T17:10:06.007Z,65.70
2017-08-26T17:12:33.951Z,67.20
2017-08-26T17:15:01.701Z,66.10
2017-08-26T17:17:29.323Z,66.90
2017-08-26T17:19:56.968Z,67.10
2017-08-26T17:22:24.572Z,67.00
2017-08-26T17:24:52.184Z,68.00
2017-08-26T17:27:19.832Z,67.70
2017-08-26T17:29:47.665Z,68.40
2017-08-26T17:32:15.272Z,68.70
2017-08-26T17:34:42.948Z,68.10
2017-08-26T17:37:10.597Z,68.50
2017-08-26T17:39:38.233Z,69.10
2017-08-26T17:42:05.902Z,69.50
2017-08-26T17:44:33.522Z,70.20
2017-08-26T17:47:02.503Z,70.20
2017-08-26T17:49:30.163Z,70.10
2017-08-26T17:51:59.247Z,70.30
2017-08-26T17:54:26.900Z,70.60
2017-08-26T17:56:54.766Z,70.80
2017-08-26T17:59:22.397Z,71.30
2017-08-26T18:01:50.015Z,72.00
2017-08-26T18:04:17.785Z,72.00
2017-08-26T18:06:45.417Z,72.40
2017-08-26T18:09:13.126Z,71.90
2017-08-26T18:11:40.823Z,72.90
2017-08-26T18:14:08.527Z,72.20
2017-08-26T18:16:36.194Z,72.10
2017-08-26T18:19:03.913Z,72.40
2017-08-26T18:21:31.544Z,73.10
2017-08-26T18:23:59.244Z,71.90
2017-08-26T18:26:27.059Z,72.60
2017-08-26T18:28:54.719Z,72.20
2017-08-26T18:31:22.445Z,74.60
2017-08-26T18:33:50.142Z,74.40
2017-08-26T18:36:17.895Z,75.20
2017-08-26T18:38:45.677Z,75.00
2017-08-26T18:41:13.366Z,75.60
2017-08-26T18:43:40.976Z,76.80
2017-08-26T18:46:08.593Z,76.70
2017-08-26T18:48:36.281Z,77.80
2017-08-26T18:51:03.918Z,77.60
2017-08-26T18:53:31.540Z,78.20
2017-08-26T18:55:59.183Z,79.70
2017-08-26T18:58:26.829Z,79.40
2017-08-26T19:00:54.477Z,79.70
2017-08-26T19:03:22.115Z,80.40
2017-08-26T19:05:49.733Z,81.10
2017-08-26T19:08:17.420Z,81.30
2017-08-26T19:10:45.064Z,82.00
2017-08-26T19:13:21.713Z,82.80
2017-08-26T19:15:49.385Z,83.00
2017-08-26T19:18:16.995Z,83.80
2017-08-26T19:20:44.621Z,84.50
2017-08-26T19:23:12.267Z,85.10
2017-08-26T19:25:39.886Z,84.80
2017-08-26T19:28:07.594Z,84.70
2017-08-26T19:30:35.248Z,85.50
2017-08-26T19:33:02.884Z,85.80
2017-08-26T19:35:30.525Z,86.10
2017-08-26T19:37:58.176Z,86.80
2017-08-26T19:40:25.804Z,87.20
2017-08-26T19:42:53.421Z,87.60
2017-08-26T19:45:21.095Z,87.70
2017-08-26T19:47:48.708Z,88.20
2017-08-26T19:50:16.513Z,88.90
2017-08-26T19:52:44.176Z,89.40
2017-08-26T19:55:11.793Z,89.20
2017-08-26T19:57:39.425Z,88.60
2017-08-26T20:00:07.081Z,89.00
2017-08-26T20:02:34.720Z,87.80
2017-08-26T20:05:02.336Z,88.30
2017-08-26T20:07:30.015Z,87.60
2017-08-26T20:09:57.661Z,87.00
2017-08-26T20:12:25.319Z,85.80
2017-08-26T20:14:53.025Z,84.70
2017-08-26T20:17:20.656Z,84.80
2017-08-26T20:19:48.268Z,84.30
2017-08-26T20:22:15.949Z,84.20
2017-08-26T20:24:43.593Z,85.50
2017-08-26T20:27:11.405Z,86.30
2017-08-26T20:29:39.069Z,86.30
2017-08-26T20:32:06.723Z,86.40
2017-08-26T20:34:34.341Z,85.90
2017-08-26T20:37:02.021Z,87.80
2017-08-26T20:39:29.658Z,88.60
2017-08-26T20:41:57.281Z,90.90
2017-08-26T20:44:24.965Z,93.20
2017-08-26T20:46:52.579Z,95.10
2017-08-26T20:49:20.191Z,99.20
2017-08-26T20:51:47.842Z,99.90
2017-08-26T20:54:15.462Z,99.90
2017-08-26T20:56:43.461Z,99.90
2017-08-26T20:59:11.117Z,99.90
2017-08-26T21:01:38.733Z,99.90
2017-08-26T21:04:06.343Z,99.90
2017-08-26T21:06:34.008Z,99.90
2017-08-26T21:09:01.640Z,99.90
2017-08-26T21:11:29.256Z,99.90
2017-08-26T21:13:56.901Z,99.90
2017-08-26T21:16:24.547Z,99.90
2017-08-26T21:18:52.173Z,99.90
2017-08-26T21:21:19.825Z,99.90
2017-08-26T21:23:47.449Z,99.90
2017-08-26T21:26:15.084Z,99.90
2017-08-26T21:28:42.725Z,99.90
2017-08-26T21:31:10.341Z,99.90
2017-08-26T21:33:37.962Z,99.90
2017-08-26T21:36:05.634Z,99.90
2017-08-26T21:38:33.256Z,99.90
2017-08-26T21:41:00.876Z,99.90
2017-08-26T21:43:28.520Z,99.90
2017-08-26T21:45:56.196Z,99.90
2017-08-26T21:48:23.852Z,99.90
2017-08-26T21:53:30.041Z,99.90
2017-08-26T21:55:57.726Z,99.90
2017-08-26T21:58:25.332Z,99.90
2017-08-26T22:00:52.986Z,99.90
2017-08-26T22:03:20.703Z,99.90
2017-08-26T22:05:48.321Z,99.90
2017-08-26T22:08:16.081Z,99.90
2017-08-26T22:10:43.690Z,99.90
2017-08-26T22:13:11.313Z,99.90
2017-08-26T22:15:38.954Z,99.90
2017-08-26T22:18:06.568Z,99.90
2017-08-26T22:20:34.222Z,99.90
2017-08-26T22:23:01.873Z,99.90
2017-08-26T22:25:29.486Z,99.90
2017-08-26T22:27:57.135Z,99.90
2017-08-26T22:30:24.772Z,99.90
2017-08-26T22:32:52.379Z,99.90
2017-08-26T22:35:20.002Z,99.90
2017-08-26T22:37:47.639Z,99.90
2017-08-26T22:40:15.244Z,99.90
2017-08-26T22:42:42.873Z,99.90
2017-08-26T22:45:10.516Z,99.90
2017-08-26T22:47:38.144Z,99.90
2017-08-26T22:50:05.753Z,99.90
2017-08-26T22:52:33.397Z,99.90
2017-08-26T22:55:01.013Z,99.90
2017-08-26T22:57:28.625Z,99.90
2017-08-26T22:59:56.305Z,99.90
2017-08-26T23:02:23.920Z,99.90
2017-08-26T23:04:51.528Z,99.90
2017-08-26T23:07:19.181Z,99.90
2017-08-26T23:09:46.810Z,99.90
2017-08-26T23:12:14.421Z,99.90
2017-08-26T23:14:42.058Z,99.90
2017-08-26T23:17:09.687Z,99.90
2017-08-26T23:19:37.309Z,99.90
2017-08-26T23:22:04.952Z,99.90
2017-08-26T23:24:32.632Z,99.90
2017-08-26T23:27:00.240Z,99.90
2017-08-26T23:29:27.883Z,99.90
2017-08-26T23:31:55.510Z,99.90
2017-08-26T23:34:23.128Z,99.90
2017-08-26T23:36:50.785Z,99.90
2017-08-26T23:39:18.392Z,99.90
2017-08-26T23:41:46.033Z,99.90
2017-08-26T23:44:13.677Z,99.90
2017-08-26T23:46:41.298Z,99.90
2017-08-26T23:49:08.917Z,99.90
2017-08-26T23:51:36.617Z,99.90
2017-08-26T23:54:04.227Z,99.90
2017-08-26T23:56:31.840Z,99.90
2017-08-26T23:58:59.492Z,99.90
